Sport Tracks Activity Report
Ort Welt-Kult-Tour 95 km Runde Datum 20.09.2009 08:00:34
Kategorie Radfahren
Distanz 96,57 Kilometer Steigung 866,4 Meter Gefälle -777,4 Meter
Gesamt Zeit 05:28:47 Aktiv 03:52:54 Pause 01:35:53
Durchs. Tempo 24,9 km/h Tempo max. 53,6 km/h Tempo min. 0,2 km/h
Kalorien 4239 Durchs. HF 134 BPM HF max. 155 BPM
Wetter 24 °C Clear Erst Nebel, dann gut
Ausrüstung Da Vinci - Sora
Notiz Tour 3 der Welt-Kult-Tour. 95 km 1000 HM. Ein paar schlimme Berge, aber an sich gut geschafft für meine erste größere Fahrt.
Splits
Distanz (km) Gesamt Zeit Split Zeit Split Tempo Split Tempo Höhenprofil (m)
2,00 00:05:19 00:05:19 00:02:40 22,6 17,30
4,00 00:09:33 00:04:14 00:02:07 28,3 3,85
6,00 00:14:58 00:05:25 00:02:42 22,2 27,88
8,00 00:20:10 00:05:12 00:02:36 23,1 26,92
10,00 00:23:27 00:03:17 00:01:38 36,5 -50,95
12,00 00:27:43 00:04:16 00:02:08 28,1 -9,61
14,00 00:31:58 00:04:15 00:02:08 28,2 -21,15
16,00 00:36:29 00:04:31 00:02:16 26,6 -6,25
18,00 00:40:29 00:04:00 00:02:00 30,0 4,81
20,00 00:44:39 00:04:10 00:02:05 28,8 8,65
22,00 00:49:31 00:04:52 00:02:26 24,7 13,46
24,00 00:53:12 00:03:41 00:01:50 32,6 -23,07
26,00 00:57:24 00:04:12 00:02:06 28,6 4,81
28,00 01:01:47 00:04:23 00:02:12 27,4 -5,77
30,00 01:10:35 00:08:48 00:04:24 13,6 139,39
32,00 01:14:04 00:03:29 00:01:44 34,4 -52,87
34,00 01:16:38 00:02:34 00:01:17 46,8 -85,56
36,00 02:11:42 00:55:04 00:27:32 2,2 107,19
38,00 02:17:23 00:05:41 00:02:50 21,1 -12,02
40,00 02:21:15 00:03:52 00:01:56 31,0 -71,62
42,00 02:25:10 00:03:55 00:01:58 30,6 -17,78
44,00 02:30:59 00:05:49 00:02:54 20,6 35,09
46,00 02:38:26 00:07:27 00:03:44 16,1 85,56
48,00 02:42:05 00:03:39 00:01:50 32,9 -47,10
50,00 02:47:19 00:05:14 00:02:37 22,9 20,67
52,00 02:52:57 00:05:38 00:02:49 21,3 12,50
54,00 03:00:22 00:07:25 00:03:42 16,2 -5,77
56,00 03:04:34 00:04:12 00:02:06 28,6 -11,54
58,00 03:09:05 00:04:31 00:02:16 26,6 -26,44
60,00 03:13:27 00:04:22 00:02:11 27,5 -9,61
62,00 03:18:05 00:04:38 00:02:19 25,9 -2,40
64,00 03:22:27 00:04:22 00:02:11 27,5 -55,28
66,00 03:26:46 00:04:19 00:02:10 27,8 7,21
68,00 03:31:03 00:04:17 00:02:08 28,0 -9,61
70,00 03:36:27 00:05:24 00:02:42 22,2 -4,33
72,00 03:59:24 00:22:57 00:11:28 5,2 -8,65
74,00 04:03:30 00:04:06 00:02:03 29,3 14,90
76,00 04:07:38 00:04:08 00:02:04 29,0 -5,77
78,00 04:13:08 00:05:30 00:02:45 21,8 32,20
80,00 04:18:42 00:05:34 00:02:47 21,6 31,72
82,00 04:24:56 00:06:14 00:03:07 19,3 37,49
84,00 04:28:36 00:03:40 00:01:50 32,7 -36,05
86,00 04:33:43 00:05:07 00:02:34 23,5 0,96
88,00 04:37:37 00:03:54 00:01:57 30,8 -15,38
90,00 04:41:17 00:03:40 00:01:50 32,7 -26,44
92,00 04:45:21 00:04:04 00:02:02 29,5 -7,69
94,00 04:49:20 00:03:59 00:02:00 30,1 -17,78
96,00 05:23:43 00:34:23 00:17:12 3,5 -6,25